Time;durP1;ratioP1;P1;durP2;ratioP2;P2;SDS_P1;SDS_P2;PMS_P1;PMS_P2;Temp;Humidity;BMP_temperature;BMP_pressure;BME280_temperature;BME280_humidity;BME280_pressure;Samples;Min_cycle;Max_cycle;Signal;HPM_P1;HPM_P2
2021/12/20 00:00:08;;;;;;;6.72;4.20;;;;;;;6.19;82.80;101261.91;4899200;29;20060;-89
2021/12/20 00:02:37;;;;;;;7.63;4.40;;;;;;;6.19;83.16;101282.06;4898870;29;20056;-88
2021/12/20 00:05:15;;;;;;;7.60;4.30;;;;;;;6.12;83.63;101270.81;4898871;29;20112;-89
2021/12/20 00:07:50;;;;;;;7.55;4.35;;;;;;;5.90;83.65;101235.19;4897778;29;20064;-89
2021/12/20 00:10:58;;;;;;;6.65;4.22;;;;;;;5.94;83.76;101235.13;4906996;29;20060;-88
2021/12/20 00:13:39;;;;;;;7.25;4.13;;;;;;;6.31;83.41;101288.03;4906709;29;20056;-89
2021/12/20 00:16:20;;;;;;;4.82;3.45;;;;;;;6.18;83.29;101257.53;4902358;29;20104;-89
2021/12/20 00:18:55;;;;;;;6.80;3.25;;;;;;;6.02;83.05;101228.88;4910704;29;20062;-89
2021/12/20 00:21:28;;;;;;;5.32;3.50;;;;;;;6.16;82.20;101240.91;4909193;29;20059;-89
2021/12/20 00:24:37;;;;;;;6.85;4.07;;;;;;;6.28;81.87;101250.41;4917628;29;20076;-89
2021/12/20 00:27:13;;;;;;;6.63;3.80;;;;;;;6.37;81.97;101271.28;4910212;29;20052;-89
2021/12/20 00:30:08;;;;;;;4.82;3.25;;;;;;;6.38;82.34;101273.03;4914435;29;20072;-89
2021/12/20 00:32:40;;;;;;;6.05;3.58;;;;;;;6.47;82.33;101280.75;4947846;23;20080;-88
2021/12/20 00:35:12;;;;;;;5.97;3.50;;;;;;;6.38;82.25;101261.63;4896878;29;20048;-89
2021/12/20 00:40:24;;;;;;;8.32;3.60;;;;;;;6.45;81.95;101261.53;4901796;29;20155;-88
2021/12/20 00:42:51;;;;;;;6.07;3.78;;;;;;;6.29;81.95;101236.34;4894624;29;20064;-89
2021/12/20 00:45:20;;;;;;;6.65;3.38;;;;;;;6.22;81.94;101224.19;4900992;29;20136;-89
2021/12/20 00:47:47;;;;;;;6.82;3.60;;;;;;;6.53;81.55;101270.13;4900951;29;20053;-89
2021/12/20 00:50:17;;;;;;;6.68;3.47;;;;;;;6.48;81.53;101271.97;4898483;29;20052;-89
2021/12/20 00:52:44;;;;;;;6.20;3.70;;;;;;;6.49;80.90;101265.81;4896292;29;20056;-88
2021/12/20 00:55:15;;;;;;;5.70;3.88;;;;;;;6.24;81.20;101223.25;4896522;29;20044;-89
2021/12/20 00:57:47;;;;;;;6.20;3.20;;;;;;;6.46;80.61;101250.06;4895000;29;20056;-88
2021/12/20 01:00:18;;;;;;;6.32;3.15;;;;;;;6.57;80.40;101257.81;4893341;29;20079;-90
2021/12/20 01:02:46;;;;;;;6.05;3.15;;;;;;;6.33;80.11;101216.97;4893790;29;20060;-89
2021/12/20 01:05:13;;;;;;;6.25;3.50;;;;;;;6.47;80.13;101238.66;4895090;29;20048;-89
2021/12/20 01:07:40;;;;;;;4.78;2.90;;;;;;;6.47;80.08;101236.03;4897804;29;20076;-89
2021/12/20 01:10:09;;;;;;;5.82;3.78;;;;;;;6.51;79.54;101242.97;4898374;29;20110;-89
2021/12/20 01:12:44;;;;;;;6.03;3.20;;;;;;;6.48;79.36;101231.63;4894571;29;20231;-89
2021/12/20 01:15:16;;;;;;;7.75;3.20;;;;;;;6.47;79.94;101249.19;4899975;29;20517;-89
2021/12/20 01:17:43;;;;;;;5.22;3.00;;;;;;;6.54;80.05;101261.34;4901241;29;20060;-89
2021/12/20 01:20:11;;;;;;;6.05;3.40;;;;;;;6.63;80.25;101274.34;4898581;29;20049;-88
2021/12/20 01:22:37;;;;;;;6.53;3.65;;;;;;;6.37;80.32;101237.09;4895955;29;20056;-88
2021/12/20 01:25:05;;;;;;;5.38;3.65;;;;;;;6.59;80.79;101282.34;4899631;29;20478;-89
2021/12/20 01:27:32;;;;;;;7.95;4.35;;;;;;;6.45;80.37;101247.50;4897399;29;20072;-88
2021/12/20 01:29:58;;;;;;;5.45;3.42;;;;;;;6.63;80.33;101273.47;4899300;29;20139;-88
2021/12/20 01:32:25;;;;;;;6.40;3.92;;;;;;;6.52;80.37;101265.78;4897971;29;20067;-89
2021/12/20 01:34:53;;;;;;;12.23;4.60;;;;;;;6.36;80.38;101237.97;4898016;29;20056;-88
2021/12/20 01:37:20;;;;;;;7.03;4.53;;;;;;;6.50;80.40;101249.13;4897421;29;20456;-89
2021/12/20 01:39:47;;;;;;;6.50;4.15;;;;;;;6.31;80.60;101219.63;4899610;29;20061;-89
2021/12/20 01:42:20;;;;;;;8.05;4.70;;;;;;;6.46;80.90;101250.06;4890779;29;20048;-87
2021/12/20 01:44:49;;;;;;;6.80;4.10;;;;;;;6.43;81.13;101251.91;4892822;29;20116;-89
2021/12/20 01:47:16;;;;;;;7.25;3.88;;;;;;;6.43;81.28;101262.44;4899876;29;20052;-89
2021/12/20 01:49:57;;;;;;;8.13;4.13;;;;;;;6.45;81.31;101269.41;4896273;29;20052;-88
2021/12/20 01:52:27;;;;;;;7.30;4.30;;;;;;;6.14;81.07;101210.28;4895791;29;20060;-90
2021/12/20 01:54:54;;;;;;;9.43;4.75;;;;;;;6.55;80.59;101270.13;4898153;29;20052;-89
2021/12/20 01:57:22;;;;;;;8.77;4.40;;;;;;;6.49;80.43;101271.06;4896373;29;20067;-89
2021/12/20 01:59:49;;;;;;;6.43;4.00;;;;;;;6.26;80.93;101241.66;4896772;29;20052;-88
2021/12/20 02:02:16;;;;;;;7.15;3.83;;;;;;;6.09;81.29;101210.38;4895482;29;20584;-88
2021/12/20 02:04:48;;;;;;;8.60;4.18;;;;;;;6.24;81.74;101243.44;4897690;29;20101;-88
2021/12/20 02:07:34;;;;;;;8.63;3.92;;;;;;;6.32;80.85;101259.94;4895536;29;20082;-88
2021/12/20 02:10:01;;;;;;;6.85;3.75;;;;;;;6.44;81.07;101279.97;4896527;29;20087;-88
2021/12/20 02:12:29;;;;;;;6.68;3.58;;;;;;;6.32;80.75;101250.31;4893269;29;20080;-90
2021/12/20 02:14:56;;;;;;;6.93;3.95;;;;;;;6.18;81.10;101233.00;4901664;29;20049;-88
2021/12/20 02:17:23;;;;;;;7.38;4.13;;;;;;;6.25;81.22;101237.28;4897790;29;20096;-88
2021/12/20 02:19:50;;;;;;;5.93;4.00;;;;;;;6.30;81.27;101256.47;4897932;29;20121;-88
2021/12/20 02:22:17;;;;;;;9.27;4.05;;;;;;;6.29;81.49;101252.13;4900981;29;20067;-88
2021/12/20 02:24:47;;;;;;;8.35;3.67;;;;;;;6.24;81.38;101252.19;4904730;29;20056;-89
2021/12/20 02:27:15;;;;;;;5.20;3.42;;;;;;;6.07;81.20;101219.16;4910997;29;20128;-88
2021/12/20 02:30:00;;;;;;;6.97;3.60;;;;;;;6.09;80.39;101215.63;4908958;29;20067;-87
2021/12/20 02:37:58;;;;;;;5.32;2.88;;;;;;;6.26;77.95;101236.41;4911884;29;20052;-88
2021/12/20 02:40:28;;;;;;;7.32;2.75;;;;;;;6.28;77.20;101242.50;4919958;29;20326;-88
2021/12/20 02:42:56;;;;;;;5.07;2.50;;;;;;;6.43;76.67;101267.69;4916730;29;20068;-89
2021/12/20 02:45:30;;;;;;;6.75;2.30;;;;;;;6.29;76.61;101239.84;4902311;29;20045;-88
2021/12/20 02:47:57;;;;;;;6.60;2.33;;;;;;;6.08;76.46;101207.75;4896503;29;20077;-87
2021/12/20 02:50:24;;;;;;;7.40;2.20;;;;;;;6.43;75.63;101270.31;4901210;29;20064;-88
2021/12/20 02:52:53;;;;;;;7.80;2.30;;;;;;;6.36;75.64;101264.28;4899534;29;20056;-88
2021/12/20 02:55:20;;;;;;;6.47;2.22;;;;;;;6.28;75.05;101239.88;4902624;29;20060;-88
2021/12/20 02:57:47;;;;;;;5.40;1.70;;;;;;;6.31;75.20;101251.19;4897986;29;20087;-89
2021/12/20 03:00:16;;;;;;;5.78;2.00;;;;;;;6.29;74.92;101247.75;4894309;29;20049;-88
2021/12/20 03:02:43;;;;;;;6.35;1.92;;;;;;;6.08;74.75;101219.13;4890007;29;20048;-89
2021/12/20 03:05:12;;;;;;;7.97;1.80;;;;;;;6.21;74.79;101238.22;4895681;29;20052;-88
2021/12/20 03:07:48;;;;;;;5.88;1.67;;;;;;;6.31;74.38;101247.69;4893202;29;20512;-89
2021/12/20 03:10:20;;;;;;;7.53;1.80;;;;;;;6.27;74.19;101246.91;4899250;29;20055;-89
2021/12/20 03:12:50;;;;;;;6.38;1.88;;;;;;;6.25;73.77;101229.41;4898920;29;20064;-89
2021/12/20 03:15:23;;;;;;;5.25;1.63;;;;;;;6.32;72.66;101249.44;4901127;29;20075;-89
2021/12/20 03:17:54;;;;;;;6.57;1.67;;;;;;;6.31;72.30;101248.56;4900387;29;20057;-89
2021/12/20 03:20:25;;;;;;;5.60;1.80;;;;;;;6.40;71.86;101255.47;4904236;29;20056;-89
2021/12/20 03:22:51;;;;;;;6.70;1.67;;;;;;;6.42;71.08;101250.16;4902234;29;20071;-89
2021/12/20 03:25:18;;;;;;;6.88;1.85;;;;;;;6.14;71.19;101207.66;4904725;29;20077;-89
2021/12/20 03:27:45;;;;;;;4.55;1.60;;;;;;;6.37;71.73;101249.38;4893878;29;20537;-89
2021/12/20 03:30:13;;;;;;;5.70;1.90;;;;;;;6.31;71.65;101245.94;4894308;29;20114;-89
2021/12/20 03:32:41;;;;;;;4.68;1.58;;;;;;;6.35;71.36;101246.75;4889042;29;20075;-89
2021/12/20 03:35:09;;;;;;;4.63;2.03;;;;;;;6.49;71.80;101286.00;4895487;29;20066;-89
2021/12/20 03:37:40;;;;;;;6.53;2.08;;;;;;;6.44;71.45;101267.69;4896379;29;20497;-89
2021/12/20 03:40:07;;;;;;;8.68;1.77;;;;;;;6.53;71.42;101285.94;4899764;29;20496;-89
2021/12/20 03:42:35;;;;;;;7.80;2.20;;;;;;;6.40;71.10;101265.97;4895153;29;20059;-89
2021/12/20 03:45:02;;;;;;;7.40;2.00;;;;;;;6.51;71.30;101279.81;4899673;29;20140;-89
2021/12/20 03:47:29;;;;;;;5.03;1.55;;;;;;;6.50;71.54;101275.44;4897719;29;20207;-89
2021/12/20 03:49:56;;;;;;;9.77;1.70;;;;;;;6.40;71.64;101263.34;4898286;29;20424;-89
2021/12/20 03:52:22;;;;;;;8.27;2.45;;;;;;;6.34;71.22;101255.53;4899020;29;20060;-89
2021/12/20 03:54:49;;;;;;;5.43;1.90;;;;;;;6.37;71.33;101252.00;4898580;29;20124;-89
2021/12/20 03:57:16;;;;;;;6.25;1.90;;;;;;;6.53;71.17;101282.44;4899334;29;20057;-89
2021/12/20 03:59:47;;;;;;;12.68;2.40;;;;;;;6.45;70.70;101258.88;4899804;29;20056;-89
2021/12/20 04:02:18;;;;;;;6.78;1.80;;;;;;;6.18;71.10;101222.47;4898796;29;20048;-89
2021/12/20 04:04:45;;;;;;;11.68;2.10;;;;;;;6.42;71.26;101271.22;4898737;29;20055;-89
2021/12/20 04:07:12;;;;;;;7.43;1.50;;;;;;;6.49;72.32;101292.13;4897236;29;20084;-89
2021/12/20 04:09:39;;;;;;;8.85;1.67;;;;;;;6.31;72.02;101261.72;4900673;29;20175;-89
2021/12/20 04:12:06;;;;;;;8.73;1.92;;;;;;;6.49;71.84;101291.25;4897401;29;20120;-89
2021/12/20 04:14:32;;;;;;;8.18;1.95;;;;;;;6.38;72.09;101274.78;4894406;29;20492;-89
2021/12/20 04:16:59;;;;;;;9.95;2.00;;;;;;;6.15;72.05;101252.31;4896857;29;20079;-89
2021/12/20 04:19:26;;;;;;;9.32;1.95;;;;;;;6.32;71.78;101292.38;4892547;29;20053;-89
2021/12/20 04:21:53;;;;;;;8.27;1.48;;;;;;;6.23;72.94;101286.41;4897623;29;20068;-89
2021/12/20 04:24:20;;;;;;;12.05;1.95;;;;;;;6.06;73.14;101264.75;4895955;29;20564;-89
2021/12/20 04:26:47;;;;;;;17.45;2.15;;;;;;;6.31;73.10;101305.56;4898080;29;20524;-89
2021/12/20 04:29:13;;;;;;;9.80;2.50;;;;;;;6.30;73.56;101302.06;4893766;29;20104;-90
2021/12/20 04:31:40;;;;;;;9.25;2.17;;;;;;;6.07;73.37;101266.50;4897708;29;20059;-89
2021/12/20 04:34:07;;;;;;;10.57;2.10;;;;;;;6.23;73.35;101292.53;4893200;29;20080;-89
2021/12/20 04:36:34;;;;;;;10.80;1.80;;;;;;;5.85;74.11;101255.38;4898384;29;20135;-89
2021/12/20 04:39:03;;;;;;;10.18;2.50;;;;;;;6.07;73.46;101298.03;4900248;29;20526;-90
2021/12/20 04:41:32;;;;;;;12.13;2.38;;;;;;;5.99;73.68;101296.38;4897338;29;20055;-89
2021/12/20 04:43:59;;;;;;;11.40;2.45;;;;;;;5.88;74.13;101284.25;4889737;29;20083;-88
2021/12/20 04:46:26;;;;;;;14.07;2.35;;;;;;;5.91;74.55;101294.75;4893962;29;20564;-89
2021/12/20 04:48:56;;;;;;;12.65;2.10;;;;;;;5.89;74.89;101297.41;4899916;29;20125;-90
2021/12/20 04:51:23;;;;;;;13.43;2.15;;;;;;;5.74;75.66;101283.56;4899892;29;20056;-89
2021/12/20 04:53:50;;;;;;;11.38;2.65;;;;;;;5.99;75.21;101322.66;4896528;29;20058;-89
2021/12/20 04:56:16;;;;;;;11.77;2.47;;;;;;;5.87;75.92;101299.16;4897921;29;20068;-89
2021/12/20 04:58:43;;;;;;;13.25;2.85;;;;;;;5.54;75.36;101247.88;4893406;29;20112;-90
2021/12/20 05:01:10;;;;;;;15.40;2.17;;;;;;;5.91;75.15;101324.53;4894208;29;20795;-90
2021/12/20 05:03:37;;;;;;;8.85;1.98;;;;;;;5.87;75.93;101316.66;4890974;29;20128;-90
2021/12/20 05:06:04;;;;;;;12.27;2.42;;;;;;;5.50;76.08;101261.97;4908472;29;20070;-89
2021/12/20 05:08:36;;;;;;;10.75;2.30;;;;;;;5.62;76.01;101289.84;4899828;29;20161;-89
2021/12/20 05:11:06;;;;;;;13.02;2.10;;;;;;;5.68;75.96;101297.63;4900790;29;20068;-89
2021/12/20 05:13:33;;;;;;;17.50;2.87;;;;;;;5.58;76.62;101301.28;4897791;29;20086;-89
2021/12/20 05:16:00;;;;;;;13.18;2.90;;;;;;;5.73;77.23;101330.00;4906585;29;20040;-89
2021/12/20 05:18:27;;;;;;;14.95;2.53;;;;;;;5.49;77.26;101298.78;4900512;29;20056;-89
2021/12/20 05:20:54;;;;;;;13.18;2.63;;;;;;;5.45;77.28;101289.19;4899078;29;20060;-90
2021/12/20 05:23:21;;;;;;;11.55;2.42;;;;;;;5.46;77.86;101304.06;4891554;29;20056;-89
2021/12/20 05:25:47;;;;;;;17.80;2.67;;;;;;;5.67;77.79;101324.78;4895802;29;20045;-89
2021/12/20 05:28:14;;;;;;;16.65;2.60;;;;;;;5.54;77.49;101308.31;4894366;29;20521;-88
2021/12/20 05:30:41;;;;;;;13.70;2.40;;;;;;;5.40;77.61;101290.97;4899699;29;20580;-89
2021/12/20 05:33:09;;;;;;;11.07;2.25;;;;;;;5.57;77.98;101333.69;4896350;29;20056;-88
2021/12/20 05:35:35;;;;;;;12.23;2.03;;;;;;;5.34;78.25;101312.94;4899783;29;20060;-88
2021/12/20 05:38:02;;;;;;;8.45;2.20;;;;;;;5.45;78.51;101324.19;4899742;29;20135;-89
2021/12/20 05:40:29;;;;;;;16.50;2.85;;;;;;;5.36;78.26;101319.03;4902601;29;20052;-88
2021/12/20 05:42:56;;;;;;;13.30;2.45;;;;;;;5.23;78.76;101307.78;4895976;29;20112;-89
2021/12/20 05:45:23;;;;;;;13.38;2.65;;;;;;;5.13;78.66;101321.91;4896166;29;20112;-88
2021/12/20 05:47:50;;;;;;;18.00;2.95;;;;;;;4.98;79.35;101311.56;4899799;29;20087;-88
2021/12/20 05:50:19;;;;;;;17.63;2.80;;;;;;;4.98;80.15;101334.31;4895948;29;20070;-88
2021/12/20 05:52:46;;;;;;;14.63;2.60;;;;;;;5.05;80.63;101355.22;4907000;29;20075;-88
2021/12/20 05:55:14;;;;;;;17.17;3.05;;;;;;;4.61;80.58;101278.66;4898051;29;20040;-87
2021/12/20 05:57:41;;;;;;;12.90;2.67;;;;;;;4.95;80.29;101348.31;4908811;29;20272;-87
2021/12/20 06:00:14;;;;;;;14.10;2.80;;;;;;;4.75;80.53;101330.13;4899000;29;20552;-88
2021/12/20 06:02:42;;;;;;;15.45;2.80;;;;;;;4.62;81.37;101328.47;4892450;29;20052;-89
2021/12/20 06:05:10;;;;;;;15.88;2.75;;;;;;;4.65;81.70;101338.97;4898475;29;20059;-89
2021/12/20 06:07:40;;;;;;;11.02;2.42;;;;;;;4.62;81.03;101333.72;4900354;29;20086;-89
2021/12/20 06:10:11;;;;;;;14.18;2.72;;;;;;;4.46;81.77;101338.22;4897119;29;20088;-88
2021/12/20 06:12:39;;;;;;;15.32;2.65;;;;;;;4.37;81.71;101333.06;4896667;29;20137;-89
2021/12/20 06:15:10;;;;;;;18.15;2.70;;;;;;;4.14;82.30;101306.09;4898174;29;20521;-90
2021/12/20 06:17:38;;;;;;;18.98;3.03;;;;;;;4.15;83.04;101324.44;4892742;29;20049;-88
2021/12/20 06:20:07;;;;;;;17.98;2.88;;;;;;;4.26;82.53;101347.09;4895687;29;20147;-89
2021/12/20 06:22:34;;;;;;;11.93;2.75;;;;;;;4.01;83.41;101317.53;4895140;29;20060;-88
2021/12/20 06:25:02;;;;;;;19.00;2.90;;;;;;;4.22;82.97;101378.59;4896015;29;20104;-89
2021/12/20 06:27:29;;;;;;;19.48;2.78;;;;;;;4.12;83.63;101376.88;4900274;29;20128;-89
2021/12/20 06:29:55;;;;;;;20.17;2.63;;;;;;;3.89;84.48;101344.69;4899442;29;20056;-88
2021/12/20 06:32:22;;;;;;;14.75;2.88;;;;;;;4.14;83.96;101387.34;4895808;29;20079;-89
2021/12/20 06:34:49;;;;;;;13.43;3.08;;;;;;;3.96;84.12;101374.31;4895677;29;20083;-89
2021/12/20 06:37:17;;;;;;;20.10;2.70;;;;;;;3.92;85.07;101376.13;4899420;29;20059;-88
2021/12/20 06:39:43;;;;;;;30.65;3.67;;;;;;;3.71;85.36;101347.38;4901768;29;20074;-88
2021/12/20 06:42:10;;;;;;;24.05;3.35;;;;;;;3.76;85.71;101380.53;4901033;29;20061;-88
2021/12/20 06:44:37;;;;;;;20.92;3.05;;;;;;;3.53;85.69;101345.69;4895021;29;20048;-91
2021/12/20 06:47:04;;;;;;;20.65;3.63;;;;;;;3.75;86.91;101388.41;4900532;29;20053;-89
2021/12/20 06:49:31;;;;;;;16.67;3.13;;;;;;;3.74;86.38;101391.91;4906682;29;20059;-89
2021/12/20 06:52:00;;;;;;;18.00;3.90;;;;;;;3.68;86.67;101407.63;4912719;29;20112;-87
2021/12/20 06:54:27;;;;;;;14.95;3.33;;;;;;;3.51;87.02;101382.34;4906425;29;20056;-89
2021/12/20 06:56:53;;;;;;;14.77;3.17;;;;;;;3.57;87.28;101396.31;4907837;29;20052;-89
2021/12/20 06:59:20;;;;;;;18.75;4.13;;;;;;;3.60;86.71;101409.41;4897300;29;20148;-89
2021/12/20 07:01:47;;;;;;;22.13;3.15;;;;;;;3.43;86.84;101384.13;4902396;29;21270;-89
2021/12/20 07:04:15;;;;;;;13.93;3.45;;;;;;;3.35;86.79;101377.13;4893975;29;20091;-89
2021/12/20 07:06:42;;;;;;;25.85;4.30;;;;;;;3.44;86.99;101406.81;4896901;29;20168;-88
2021/12/20 07:09:10;;;;;;;23.63;3.80;;;;;;;3.46;87.37;101415.50;4896986;29;20501;-88
2021/12/20 07:11:37;;;;;;;19.55;3.80;;;;;;;3.44;86.97;101432.13;4898163;29;20052;-89
2021/12/20 07:14:04;;;;;;;15.77;3.22;;;;;;;3.12;86.82;101361.50;4913786;29;20052;-88
2021/12/20 07:16:33;;;;;;;16.63;2.90;;;;;;;3.43;86.96;101427.75;4903269;29;20112;-88
2021/12/20 07:19:01;;;;;;;23.33;3.97;;;;;;;3.41;86.82;101411.19;4902477;29;20131;-87
2021/12/20 07:21:28;;;;;;;20.48;3.83;;;;;;;3.36;86.72;101410.31;4901845;29;20095;-89
2021/12/20 07:23:56;;;;;;;20.00;3.22;;;;;;;3.17;86.20;101378.91;4901955;29;20082;-88
2021/12/20 07:26:24;;;;;;;22.80;3.75;;;;;;;3.46;86.25;101438.25;4914156;29;20055;-87
2021/12/20 07:28:50;;;;;;;18.52;4.07;;;;;;;3.15;86.52;101400.72;4913486;29;20080;-88
2021/12/20 07:31:19;;;;;;;22.13;3.25;;;;;;;3.19;90.77;101402.47;4910758;29;20493;-88
2021/12/20 07:33:46;;;;;;;25.45;3.67;;;;;;;3.48;91.08;101441.69;4913187;29;20128;-88
2021/12/20 07:36:15;;;;;;;16.90;3.65;;;;;;;3.55;88.35;101443.44;4911880;29;20048;-88
2021/12/20 07:38:42;;;;;;;21.05;3.33;;;;;;;3.46;87.38;101451.34;4916756;29;20072;-89
2021/12/20 07:41:09;;;;;;;20.45;4.20;;;;;;;3.35;87.51;101424.25;4913378;29;20081;-87
2021/12/20 07:43:36;;;;;;;19.27;3.20;;;;;;;3.46;87.12;101456.56;4906917;29;20067;-89
2021/12/20 07:46:03;;;;;;;19.35;3.42;;;;;;;3.40;86.52;101438.22;4896033;29;20068;-89
2021/12/20 07:48:29;;;;;;;21.08;4.35;;;;;;;3.16;85.78;101407.69;4897058;29;20048;-88
2021/12/20 07:50:57;;;;;;;26.30;4.70;;;;;;;3.37;85.72;101440.84;4898589;29;20083;-88
2021/12/20 07:53:24;;;;;;;19.00;3.95;;;;;;;3.44;85.80;101463.56;4895642;29;20164;-89
2021/12/20 07:55:51;;;;;;;21.42;3.97;;;;;;;3.13;86.05;101440.00;4894034;29;20095;-90
2021/12/20 07:58:18;;;;;;;20.27;4.05;;;;;;;3.08;86.14;101439.13;4893417;29;20058;-89
2021/12/20 08:00:45;;;;;;;18.77;3.67;;;;;;;3.25;86.31;101469.66;4891789;29;20143;-88
2021/12/20 08:03:12;;;;;;;20.95;4.05;;;;;;;3.08;86.69;101448.72;4892688;29;20084;-88
2021/12/20 08:05:39;;;;;;;22.42;3.70;;;;;;;3.20;86.31;101467.03;4905245;29;20179;-88
2021/12/20 08:08:07;;;;;;;20.02;4.30;;;;;;;2.99;86.40;101438.25;4892383;29;20477;-88
2021/12/20 08:10:35;;;;;;;18.95;3.30;;;;;;;3.17;86.42;101478.38;4893232;29;20122;-88
2021/12/20 08:13:02;;;;;;;16.77;3.30;;;;;;;3.03;85.85;101445.22;4892500;29;20083;-88
2021/12/20 08:15:29;;;;;;;19.55;3.75;;;;;;;3.11;85.73;101465.28;4891983;29;20116;-88
2021/12/20 08:17:57;;;;;;;15.02;3.70;;;;;;;3.03;85.33;101446.09;4893815;29;20052;-90
2021/12/20 08:20:24;;;;;;;18.20;3.83;;;;;;;3.00;85.58;101443.47;4894833;29;20493;-89
2021/12/20 08:22:51;;;;;;;19.95;3.63;;;;;;;3.10;85.39;101447.84;4899270;29;20258;-89
2021/12/20 08:25:19;;;;;;;21.75;4.10;;;;;;;3.01;85.42;101441.72;4898036;29;20144;-89
2021/12/20 08:27:47;;;;;;;21.45;4.40;;;;;;;3.16;85.70;101476.63;4896275;29;20136;-90
2021/12/20 08:30:14;;;;;;;19.23;3.38;;;;;;;3.24;85.17;101481.00;4900829;29;20151;-88
2021/12/20 08:32:41;;;;;;;23.40;4.80;;;;;;;3.07;85.94;101455.69;4911432;29;20416;-87
2021/12/20 08:35:09;;;;;;;27.95;4.25;;;;;;;3.25;85.42;101475.75;4904156;29;20073;-88
2021/12/20 08:37:39;;;;;;;14.80;3.70;;;;;;;3.31;84.64;101469.63;4905978;29;20055;-87
2021/12/20 08:40:10;;;;;;;14.80;4.38;;;;;;;3.43;84.12;101495.84;4898331;29;20048;-87
2021/12/20 08:42:39;;;;;;;19.40;4.00;;;;;;;3.27;84.53;101463.56;4896413;29;20492;-89
2021/12/20 08:45:10;;;;;;;22.92;4.90;;;;;;;3.38;84.43;101471.41;4897140;29;20504;-91
2021/12/20 08:47:40;;;;;;;18.27;4.28;;;;;;;3.16;83.70;101434.75;4895948;29;20044;-88
2021/12/20 08:50:12;;;;;;;24.70;4.30;;;;;;;3.61;83.31;101511.53;4897147;29;20224;-89
2021/12/20 08:52:39;;;;;;;21.30;4.53;;;;;;;3.57;82.09;101483.59;4895201;29;20592;-89
2021/12/20 08:55:08;;;;;;;18.65;3.63;;;;;;;3.66;82.32;101493.19;4893534;29;20159;-89
2021/12/20 08:57:39;;;;;;;18.33;3.42;;;;;;;3.57;81.98;101462.66;4893908;29;20045;-89
2021/12/20 09:00:10;;;;;;;20.05;3.47;;;;;;;3.74;81.88;101483.59;4897060;29;20143;-88
2021/12/20 09:02:37;;;;;;;;;;;;;;;3.87;80.71;101499.28;4895218;29;20080;-89
2021/12/20 09:05:04;;;;;;;17.25;4.30;;;;;;;3.80;80.56;101476.56;4891611;29;19930;-89
2021/12/20 09:07:32;;;;;;;21.83;4.10;;;;;;;3.96;80.41;101502.72;4891816;29;20053;-90
2021/12/20 09:09:59;;;;;;;19.67;3.40;;;;;;;3.52;79.78;101422.50;4894017;29;20045;-90
2021/12/20 09:12:26;;;;;;;23.10;3.95;;;;;;;3.88;80.45;101473.94;4897019;29;20053;-91
2021/12/20 09:14:52;;;;;;;19.58;3.58;;;;;;;3.91;79.34;101471.31;4890043;29;20143;-89
2021/12/20 09:17:19;;;;;;;17.30;3.55;;;;;;;4.01;78.85;101485.25;4895697;29;20508;-89
2021/12/20 09:19:46;;;;;;;17.80;3.45;;;;;;;3.97;79.78;101468.66;4893163;29;20582;-89
2021/12/20 09:22:13;;;;;;;20.13;4.20;;;;;;;4.10;79.14;101480.84;4894112;29;20156;-89
2021/12/20 09:24:40;;;;;;;23.13;3.45;;;;;;;4.31;78.21;101505.25;4886310;29;20048;-88
2021/12/20 09:27:08;;;;;;;19.92;3.22;;;;;;;4.31;77.78;101492.16;4890482;29;20049;-88
2021/12/20 09:29:35;;;;;;;16.85;3.35;;;;;;;4.30;77.68;101493.91;4894032;29;20635;-87
2021/12/20 09:32:04;;;;;;;20.65;3.83;;;;;;;4.53;81.07;101514.78;4892906;29;20060;-88
2021/12/20 09:34:31;;;;;;;16.02;3.63;;;;;;;4.67;76.70;101522.59;4891684;29;20081;-88
2021/12/20 09:37:03;;;;;;;20.38;3.17;;;;;;;4.71;76.31;101526.97;4904231;29;20079;-89
2021/12/20 09:39:32;;;;;;;18.50;3.22;;;;;;;4.51;75.22;101491.19;4895950;29;20056;-88
2021/12/20 09:42:03;;;;;;;15.48;3.35;;;;;;;4.69;78.55;101507.72;4892787;29;20227;-89
2021/12/20 09:44:31;;;;;;;20.08;3.05;;;;;;;4.76;75.97;101520.78;4892588;29;20143;-88
2021/12/20 09:47:00;;;;;;;14.63;2.97;;;;;;;4.59;74.72;101484.16;4897192;29;20055;-87
2021/12/20 09:49:28;;;;;;;18.33;3.67;;;;;;;4.89;74.79;101526.84;4891479;29;20600;-89
2021/12/20 09:51:57;;;;;;;17.80;3.53;;;;;;;4.79;73.33;101507.66;4891013;29;20057;-89
2021/12/20 09:54:25;;;;;;;15.25;2.95;;;;;;;4.79;73.60;101523.41;4891368;29;20112;-89
2021/12/20 09:56:53;;;;;;;20.17;4.50;;;;;;;4.65;73.24;101500.75;4893996;29;20124;-89
2021/12/20 09:59:24;;;;;;;16.05;3.13;;;;;;;4.82;73.87;101525.16;4891796;29;20139;-88
2021/12/20 10:01:51;;;;;;;12.30;2.72;;;;;;;4.76;73.20;101517.28;4892466;29;20571;-88
2021/12/20 10:04:20;;;;;;;13.15;2.70;;;;;;;4.88;73.45;101535.59;4891276;29;20099;-89
2021/12/20 10:06:52;;;;;;;13.85;2.33;;;;;;;4.68;72.83;101495.50;4889685;29;20037;-88
2021/12/20 10:09:25;;;;;;;15.27;3.15;;;;;;;4.76;73.64;101517.28;4888699;29;20053;-89
2021/12/20 10:12:11;;;;;;;18.02;3.20;;;;;;;4.86;73.26;101537.38;4895076;29;20147;-90
2021/12/20 10:15:14;;;;;;;20.40;3.78;;;;;;;4.82;73.73;101519.91;4886988;29;20408;-89
2021/12/20 10:17:54;;;;;;;19.38;3.25;;;;;;;4.81;72.85;101518.16;4816771;29;20070;-90
2021/12/20 10:20:26;;;;;;;17.53;3.30;;;;;;;4.72;73.43;101502.47;4885810;29;20076;-91
2021/12/20 10:23:06;;;;;;;18.48;3.70;;;;;;;4.77;73.69;101508.53;4894460;29;20059;-89
2021/12/20 10:25:35;;;;;;;18.08;3.60;;;;;;;4.92;74.17;101537.31;4888429;29;20049;-89
2021/12/20 10:28:12;;;;;;;16.05;3.63;;;;;;;4.95;74.93;101526.81;4880948;29;20451;-89
2021/12/20 10:30:42;;;;;;;17.67;3.30;;;;;;;5.03;73.61;101537.28;4881259;29;20084;-88
2021/12/20 10:33:13;;;;;;;15.03;3.43;;;;;;;4.90;72.41;101490.09;4879412;29;20538;-89
2021/12/20 10:35:43;;;;;;;18.58;3.55;;;;;;;5.13;72.53;101520.56;4890369;29;20101;-89
2021/12/20 10:38:28;;;;;;;16.00;3.95;;;;;;;5.17;70.67;101517.94;4879836;29;20548;-89
2021/12/20 10:41:29;;;;;;;18.00;3.00;;;;;;;5.18;70.32;101513.56;4889714;29;20060;-89
2021/12/20 10:44:00;;;;;;;14.43;2.90;;;;;;;5.14;71.08;101517.94;4887032;29;20060;-88
2021/12/20 10:46:35;;;;;;;16.15;3.13;;;;;;;5.20;71.11;101512.63;4888669;29;20052;-88
2021/12/20 10:49:11;;;;;;;16.90;3.20;;;;;;;5.20;71.22;101506.50;4889710;29;20071;-88
2021/12/20 10:51:44;;;;;;;15.68;3.15;;;;;;;5.10;70.49;101482.09;4906784;29;20112;-88
2021/12/20 10:54:15;;;;;;;19.80;3.42;;;;;;;5.11;70.21;101475.94;4899199;29;20464;-89
2021/12/20 10:56:52;;;;;;;18.08;3.70;;;;;;;5.36;70.31;101523.03;4893562;29;20378;-87
2021/12/20 10:59:24;;;;;;;13.57;3.13;;;;;;;5.40;68.97;101514.25;4892907;29;20056;-88
2021/12/20 11:04:30;;;;;;;18.40;3.03;;;;;;;5.37;68.32;101504.63;4892513;29;20789;-89
2021/12/20 11:09:42;;;;;;;16.08;2.97;;;;;;;5.51;65.89;101509.78;4895962;29;20116;-90
2021/12/20 11:12:15;;;;;;;14.63;2.28;;;;;;;5.29;66.58;101474.94;4899579;29;20048;-90
2021/12/20 11:14:51;;;;;;;13.77;2.63;;;;;;;5.50;66.76;101508.06;4899873;29;20583;-89
2021/12/20 11:17:20;;;;;;;14.15;3.30;;;;;;;5.31;66.58;101472.31;4902816;29;20062;-88
2021/12/20 11:19:53;;;;;;;14.63;2.80;;;;;;;5.50;67.40;101501.03;4909202;29;20072;-88
2021/12/20 11:22:24;;;;;;;12.65;2.80;;;;;;;5.53;66.61;101495.72;4891118;29;20083;-89
2021/12/20 11:24:55;;;;;;;16.55;2.83;;;;;;;5.56;66.93;101494.84;4892519;29;20094;-89
2021/12/20 11:27:32;;;;;;;;;;;;;;;5.59;66.58;101500.06;4894792;29;20132;-88
2021/12/20 11:30:09;;;;;;;6.18;2.35;;;;;;;5.52;64.52;101472.97;4888134;29;20399;-89
2021/12/20 11:32:37;;;;;;;12.25;3.13;;;;;;;5.59;63.07;101477.31;4896141;29;20481;-89
2021/12/20 11:35:05;;;;;;;10.35;2.33;;;;;;;5.52;61.94;101458.97;4892636;29;20071;-88
2021/12/20 11:37:32;;;;;;;7.15;1.80;;;;;;;5.72;61.33;101495.56;4894540;29;20049;-90
2021/12/20 11:40:02;;;;;;;12.20;2.40;;;;;;;5.72;62.40;101490.31;4896633;29;20104;-89
2021/12/20 11:42:29;;;;;;;;;;;;;;;5.72;61.53;101488.56;4897430;29;20049;-90
2021/12/20 11:44:59;;;;;;;11.77;2.28;;;;;;;5.66;60.59;101479.88;4895574;29;20002;-89
2021/12/20 11:47:41;;;;;;;8.73;2.00;;;;;;;5.55;60.86;101454.56;4895513;29;20208;-88
2021/12/20 11:50:11;;;;;;;15.55;2.30;;;;;;;5.58;59.85;101451.91;4895353;29;20064;-89
2021/12/20 11:52:41;;;;;;;6.55;1.55;;;;;;;5.72;59.03;101464.03;4890404;29;20056;-88